sensor_id;sensor_type;location;lat;lon;timestamp;temperature;humidity
13198;DHT22;6664;52.514;13.440;2022-09-09T00:01:59;14.20;99.90
13198;DHT22;6664;52.514;13.440;2022-09-09T00:04:29;14.10;99.90
13198;DHT22;6664;52.514;13.440;2022-09-09T00:07:09;14.10;99.90
13198;DHT22;6664;52.514;13.440;2022-09-09T00:09:44;14.00;99.90
13198;DHT22;6664;52.514;13.440;2022-09-09T00:15:07;14.10;99.90
13198;DHT22;6664;52.514;13.440;2022-09-09T00:20:50;14.10;99.90
13198;DHT22;6664;52.514;13.440;2022-09-09T00:23:31;14.00;99.90
13198;DHT22;6664;52.514;13.440;2022-09-09T00:26:02;14.10;99.90
13198;DHT22;6664;52.514;13.440;2022-09-09T00:28:33;14.10;99.90
13198;DHT22;6664;52.514;13.440;2022-09-09T00:31:15;14.10;99.90
13198;DHT22;6664;52.514;13.440;2022-09-09T00:33:46;14.00;99.90
13198;DHT22;6664;52.514;13.440;2022-09-09T00:36:18;14.00;99.90
13198;DHT22;6664;52.514;13.440;2022-09-09T00:38:52;14.00;99.90
13198;DHT22;6664;52.514;13.440;2022-09-09T00:46:52;13.90;99.90
13198;DHT22;6664;52.514;13.440;2022-09-09T00:54:50;14.00;99.90
13198;DHT22;6664;52.514;13.440;2022-09-09T00:57:26;13.90;99.90
13198;DHT22;6664;52.514;13.440;2022-09-09T01:05:20;13.70;99.90
13198;DHT22;6664;52.514;13.440;2022-09-09T01:07:50;13.70;99.90
13198;DHT22;6664;52.514;13.440;2022-09-09T01:10:51;13.80;99.90
13198;DHT22;6664;52.514;13.440;2022-09-09T01:13:26;13.60;99.90
13198;DHT22;6664;52.514;13.440;2022-09-09T01:15:58;13.60;99.90
13198;DHT22;6664;52.514;13.440;2022-09-09T01:18:31;13.60;99.90
13198;DHT22;6664;52.514;13.440;2022-09-09T01:21:04;13.60;99.90
13198;DHT22;6664;52.514;13.440;2022-09-09T01:29:18;13.50;99.90
13198;DHT22;6664;52.514;13.440;2022-09-09T01:31:54;13.60;99.90
13198;DHT22;6664;52.514;13.440;2022-09-09T01:34:24;13.50;99.90
13198;DHT22;6664;52.514;13.440;2022-09-09T01:37:10;13.50;99.90
13198;DHT22;6664;52.514;13.440;2022-09-09T01:39:40;13.40;99.90
13198;DHT22;6664;52.514;13.440;2022-09-09T01:42:10;13.40;99.90
13198;DHT22;6664;52.514;13.440;2022-09-09T01:44:38;13.30;99.90
13198;DHT22;6664;52.514;13.440;2022-09-09T01:47:06;13.40;99.90
13198;DHT22;6664;52.514;13.440;2022-09-09T01:49:33;13.40;99.90
13198;DHT22;6664;52.514;13.440;2022-09-09T01:52:00;13.40;99.90
13198;DHT22;6664;52.514;13.440;2022-09-09T01:54:29;13.40;99.90
13198;DHT22;6664;52.514;13.440;2022-09-09T01:57:31;13.40;99.90
13198;DHT22;6664;52.514;13.440;2022-09-09T02:05:29;13.30;99.90
13198;DHT22;6664;52.514;13.440;2022-09-09T02:08:05;13.30;99.90
13198;DHT22;6664;52.514;13.440;2022-09-09T02:10:55;13.40;99.90
13198;DHT22;6664;52.514;13.440;2022-09-09T02:13:23;13.30;99.90
13198;DHT22;6664;52.514;13.440;2022-09-09T02:18:24;13.10;99.90
13198;DHT22;6664;52.514;13.440;2022-09-09T02:20:52;13.20;99.90
13198;DHT22;6664;52.514;13.440;2022-09-09T02:23:20;13.20;99.90
13198;DHT22;6664;52.514;13.440;2022-09-09T02:25:51;13.20;99.90
13198;DHT22;6664;52.514;13.440;2022-09-09T02:28:21;13.20;99.90
13198;DHT22;6664;52.514;13.440;2022-09-09T02:30:50;13.10;99.90
13198;DHT22;6664;52.514;13.440;2022-09-09T02:33:30;13.20;99.90
13198;DHT22;6664;52.514;13.440;2022-09-09T02:36:05;13.20;99.90
13198;DHT22;6664;52.514;13.440;2022-09-09T02:38:38;13.10;99.90
13198;DHT22;6664;52.514;13.440;2022-09-09T02:41:09;13.10;99.90
13198;DHT22;6664;52.514;13.440;2022-09-09T02:43:36;13.20;99.90
13198;DHT22;6664;52.514;13.440;2022-09-09T02:49:10;13.30;99.90
13198;DHT22;6664;52.514;13.440;2022-09-09T02:52:18;13.30;99.90
13198;DHT22;6664;52.514;13.440;2022-09-09T02:54:38;13.20;99.90
13198;DHT22;6664;52.514;13.440;2022-09-09T02:59:40;13.10;99.90
13198;DHT22;6664;52.514;13.440;2022-09-09T03:02:10;13.20;99.90
13198;DHT22;6664;52.514;13.440;2022-09-09T03:04:38;13.20;99.90
13198;DHT22;6664;52.514;13.440;2022-09-09T03:07:06;13.00;99.90
13198;DHT22;6664;52.514;13.440;2022-09-09T03:09:35;13.30;99.90
13198;DHT22;6664;52.514;13.440;2022-09-09T03:12:04;13.20;99.90
13198;DHT22;6664;52.514;13.440;2022-09-09T03:14:31;13.00;99.90
13198;DHT22;6664;52.514;13.440;2022-09-09T03:17:00;13.20;99.90
13198;DHT22;6664;52.514;13.440;2022-09-09T03:19:29;13.10;99.90
13198;DHT22;6664;52.514;13.440;2022-09-09T03:21:59;13.20;99.90
13198;DHT22;6664;52.514;13.440;2022-09-09T03:24:26;13.00;99.90
13198;DHT22;6664;52.514;13.440;2022-09-09T03:26:53;13.10;99.90
13198;DHT22;6664;52.514;13.440;2022-09-09T03:29:22;13.10;99.90
13198;DHT22;6664;52.514;13.440;2022-09-09T03:31:49;12.90;99.90
13198;DHT22;6664;52.514;13.440;2022-09-09T03:34:17;13.00;99.90
13198;DHT22;6664;52.514;13.440;2022-09-09T03:36:44;12.90;99.90
13198;DHT22;6664;52.514;13.440;2022-09-09T03:39:11;13.10;99.90
13198;DHT22;6664;52.514;13.440;2022-09-09T03:41:37;12.90;99.90
13198;DHT22;6664;52.514;13.440;2022-09-09T03:44:05;12.90;99.90
13198;DHT22;6664;52.514;13.440;2022-09-09T03:46:31;12.80;99.90
13198;DHT22;6664;52.514;13.440;2022-09-09T03:48:58;12.80;99.90
13198;DHT22;6664;52.514;13.440;2022-09-09T03:51:25;13.00;99.90
13198;DHT22;6664;52.514;13.440;2022-09-09T03:53:54;13.00;99.90
13198;DHT22;6664;52.514;13.440;2022-09-09T03:56:24;13.10;99.90
13198;DHT22;6664;52.514;13.440;2022-09-09T03:58:51;12.90;99.90
13198;DHT22;6664;52.514;13.440;2022-09-09T04:01:21;13.00;99.90
13198;DHT22;6664;52.514;13.440;2022-09-09T04:03:48;13.10;99.90
13198;DHT22;6664;52.514;13.440;2022-09-09T04:06:15;13.00;99.90
13198;DHT22;6664;52.514;13.440;2022-09-09T04:08:41;12.90;99.90
13198;DHT22;6664;52.514;13.440;2022-09-09T04:11:09;12.90;99.90
13198;DHT22;6664;52.514;13.440;2022-09-09T04:13:38;12.80;99.90
13198;DHT22;6664;52.514;13.440;2022-09-09T04:16:06;12.80;99.90
13198;DHT22;6664;52.514;13.440;2022-09-09T04:18:33;12.80;99.90
13198;DHT22;6664;52.514;13.440;2022-09-09T04:21:04;12.90;99.90
13198;DHT22;6664;52.514;13.440;2022-09-09T04:23:33;12.70;99.90
13198;DHT22;6664;52.514;13.440;2022-09-09T04:26:04;12.70;99.90
13198;DHT22;6664;52.514;13.440;2022-09-09T04:28:33;12.80;99.90
13198;DHT22;6664;52.514;13.440;2022-09-09T04:31:17;12.70;99.90
13198;DHT22;6664;52.514;13.440;2022-09-09T04:33:45;12.70;99.90
13198;DHT22;6664;52.514;13.440;2022-09-09T04:36:13;12.80;99.90
13198;DHT22;6664;52.514;13.440;2022-09-09T04:38:40;12.90;99.90
13198;DHT22;6664;52.514;13.440;2022-09-09T04:41:08;12.90;99.90
13198;DHT22;6664;52.514;13.440;2022-09-09T04:43:38;12.90;99.90
13198;DHT22;6664;52.514;13.440;2022-09-09T04:46:05;12.80;99.90
13198;DHT22;6664;52.514;13.440;2022-09-09T04:48:32;12.80;99.90
13198;DHT22;6664;52.514;13.440;2022-09-09T04:51:04;13.00;99.90
13198;DHT22;6664;52.514;13.440;2022-09-09T04:53:32;12.80;99.90
13198;DHT22;6664;52.514;13.440;2022-09-09T04:56:05;13.00;99.90
13198;DHT22;6664;52.514;13.440;2022-09-09T04:58:36;13.10;99.90
13198;DHT22;6664;52.514;13.440;2022-09-09T05:01:13;13.10;99.90
13198;DHT22;6664;52.514;13.440;2022-09-09T05:03:40;13.00;99.90
13198;DHT22;6664;52.514;13.440;2022-09-09T05:06:10;13.20;99.90
13198;DHT22;6664;52.514;13.440;2022-09-09T05:08:38;13.10;99.90
13198;DHT22;6664;52.514;13.440;2022-09-09T05:11:20;13.10;99.90
13198;DHT22;6664;52.514;13.440;2022-09-09T05:13:48;13.40;99.90
13198;DHT22;6664;52.514;13.440;2022-09-09T05:16:21;13.40;99.90
13198;DHT22;6664;52.514;13.440;2022-09-09T05:18:48;13.40;99.90
13198;DHT22;6664;52.514;13.440;2022-09-09T05:21:18;13.40;99.90
13198;DHT22;6664;52.514;13.440;2022-09-09T05:23:46;13.40;99.90
13198;DHT22;6664;52.514;13.440;2022-09-09T05:26:18;13.50;99.90
13198;DHT22;6664;52.514;13.440;2022-09-09T05:28:45;13.60;99.90
13198;DHT22;6664;52.514;13.440;2022-09-09T05:31:17;13.60;99.90
13198;DHT22;6664;52.514;13.440;2022-09-09T05:33:46;13.50;99.90
13198;DHT22;6664;52.514;13.440;2022-09-09T05:36:19;13.50;99.90
13198;DHT22;6664;52.514;13.440;2022-09-09T05:38:47;13.50;99.90
13198;DHT22;6664;52.514;13.440;2022-09-09T05:41:17;13.40;99.90
13198;DHT22;6664;52.514;13.440;2022-09-09T05:43:44;13.40;99.90
13198;DHT22;6664;52.514;13.440;2022-09-09T05:46:20;13.40;99.90
13198;DHT22;6664;52.514;13.440;2022-09-09T05:48:51;13.60;99.90
13198;DHT22;6664;52.514;13.440;2022-09-09T05:51:22;13.40;99.90
13198;DHT22;6664;52.514;13.440;2022-09-09T05:53:49;13.60;99.90
13198;DHT22;6664;52.514;13.440;2022-09-09T05:56:21;13.50;99.90
13198;DHT22;6664;52.514;13.440;2022-09-09T05:58:55;13.50;99.90
13198;DHT22;6664;52.514;13.440;2022-09-09T06:01:31;13.60;99.90
13198;DHT22;6664;52.514;13.440;2022-09-09T06:04:01;13.60;99.90
13198;DHT22;6664;52.514;13.440;2022-09-09T06:06:35;13.60;99.90
13198;DHT22;6664;52.514;13.440;2022-09-09T06:09:05;13.60;99.90
13198;DHT22;6664;52.514;13.440;2022-09-09T06:11:33;13.70;99.90
13198;DHT22;6664;52.514;13.440;2022-09-09T06:14:02;13.90;99.90
13198;DHT22;6664;52.514;13.440;2022-09-09T06:16:30;14.00;99.90
13198;DHT22;6664;52.514;13.440;2022-09-09T06:18:59;13.80;99.90
13198;DHT22;6664;52.514;13.440;2022-09-09T06:21:32;14.10;99.90
13198;DHT22;6664;52.514;13.440;2022-09-09T06:24:04;14.00;99.90
13198;DHT22;6664;52.514;13.440;2022-09-09T06:26:36;13.90;99.90
13198;DHT22;6664;52.514;13.440;2022-09-09T06:29:04;14.10;99.90
13198;DHT22;6664;52.514;13.440;2022-09-09T06:31:35;14.10;99.90
13198;DHT22;6664;52.514;13.440;2022-09-09T06:34:07;14.00;99.90
13198;DHT22;6664;52.514;13.440;2022-09-09T06:36:37;14.10;99.90
13198;DHT22;6664;52.514;13.440;2022-09-09T06:39:05;14.20;99.90
13198;DHT22;6664;52.514;13.440;2022-09-09T06:41:39;14.40;99.90
13198;DHT22;6664;52.514;13.440;2022-09-09T06:44:06;14.20;99.90
13198;DHT22;6664;52.514;13.440;2022-09-09T06:46:35;14.50;99.90
13198;DHT22;6664;52.514;13.440;2022-09-09T06:49:02;14.60;99.90
13198;DHT22;6664;52.514;13.440;2022-09-09T06:51:34;14.40;99.90
13198;DHT22;6664;52.514;13.440;2022-09-09T06:54:02;14.80;99.90
13198;DHT22;6664;52.514;13.440;2022-09-09T06:56:32;14.90;99.90
13198;DHT22;6664;52.514;13.440;2022-09-09T06:59:01;14.80;99.90
13198;DHT22;6664;52.514;13.440;2022-09-09T07:01:30;15.10;99.90
13198;DHT22;6664;52.514;13.440;2022-09-09T07:03:59;15.10;99.90
13198;DHT22;6664;52.514;13.440;2022-09-09T07:06:28;15.00;99.90
13198;DHT22;6664;52.514;13.440;2022-09-09T07:09:09;15.10;99.90
13198;DHT22;6664;52.514;13.440;2022-09-09T07:11:47;15.10;99.90
13198;DHT22;6664;52.514;13.440;2022-09-09T07:14:17;15.00;99.90
13198;DHT22;6664;52.514;13.440;2022-09-09T07:16:44;15.10;99.90
13198;DHT22;6664;52.514;13.440;2022-09-09T07:19:13;15.30;99.90
13198;DHT22;6664;52.514;13.440;2022-09-09T07:21:41;15.60;99.90
13198;DHT22;6664;52.514;13.440;2022-09-09T07:24:09;15.60;99.90
13198;DHT22;6664;52.514;13.440;2022-09-09T07:26:38;15.70;99.90
13198;DHT22;6664;52.514;13.440;2022-09-09T07:29:06;15.50;99.90
13198;DHT22;6664;52.514;13.440;2022-09-09T07:31:38;15.90;99.90
13198;DHT22;6664;52.514;13.440;2022-09-09T07:34:06;15.80;99.90
13198;DHT22;6664;52.514;13.440;2022-09-09T07:36:38;16.00;99.90
13198;DHT22;6664;52.514;13.440;2022-09-09T07:39:10;16.30;99.90
13198;DHT22;6664;52.514;13.440;2022-09-09T07:41:45;16.30;99.90
13198;DHT22;6664;52.514;13.440;2022-09-09T07:44:18;16.70;99.90
13198;DHT22;6664;52.514;13.440;2022-09-09T07:46:45;16.70;99.90
13198;DHT22;6664;52.514;13.440;2022-09-09T07:49:13;17.10;99.90
13198;DHT22;6664;52.514;13.440;2022-09-09T07:51:42;17.00;99.90
13198;DHT22;6664;52.514;13.440;2022-09-09T07:54:12;17.30;99.90
13198;DHT22;6664;52.514;13.440;2022-09-09T07:56:41;17.30;99.90
13198;DHT22;6664;52.514;13.440;2022-09-09T07:59:08;17.40;99.90
13198;DHT22;6664;52.514;13.440;2022-09-09T08:01:39;17.40;99.90
13198;DHT22;6664;52.514;13.440;2022-09-09T08:04:09;17.40;99.90
13198;DHT22;6664;52.514;13.440;2022-09-09T08:06:41;17.40;99.90
13198;DHT22;6664;52.514;13.440;2022-09-09T08:09:14;17.30;99.90
13198;DHT22;6664;52.514;13.440;2022-09-09T08:11:45;17.30;99.90
13198;DHT22;6664;52.514;13.440;2022-09-09T08:14:12;17.20;98.60
13198;DHT22;6664;52.514;13.440;2022-09-09T08:16:43;17.20;99.00
13198;DHT22;6664;52.514;13.440;2022-09-09T08:19:12;17.20;98.90
13198;DHT22;6664;52.514;13.440;2022-09-09T08:21:43;17.20;98.60
13198;DHT22;6664;52.514;13.440;2022-09-09T08:24:11;17.10;98.40
13198;DHT22;6664;52.514;13.440;2022-09-09T08:26:40;17.10;97.20
13198;DHT22;6664;52.514;13.440;2022-09-09T08:29:09;17.10;97.40
13198;DHT22;6664;52.514;13.440;2022-09-09T08:31:45;17.10;96.40
13198;DHT22;6664;52.514;13.440;2022-09-09T08:34:14;17.20;96.40
13198;DHT22;6664;52.514;13.440;2022-09-09T08:36:45;17.30;96.20
13198;DHT22;6664;52.514;13.440;2022-09-09T08:39:17;17.40;95.00
13198;DHT22;6664;52.514;13.440;2022-09-09T08:47:55;17.90;92.90
13198;DHT22;6664;52.514;13.440;2022-09-09T08:50:34;18.10;90.80
13198;DHT22;6664;52.514;13.440;2022-09-09T08:53:12;18.40;90.30
13198;DHT22;6664;52.514;13.440;2022-09-09T08:58:21;19.00;84.20
13198;DHT22;6664;52.514;13.440;2022-09-09T09:01:01;19.20;81.00
13198;DHT22;6664;52.514;13.440;2022-09-09T09:04:11;19.60;79.30
13198;DHT22;6664;52.514;13.440;2022-09-09T09:10:03;20.20;72.70
13198;DHT22;6664;52.514;13.440;2022-09-09T09:12:56;20.60;71.10
13198;DHT22;6664;52.514;13.440;2022-09-09T09:15:31;20.90;66.80
13198;DHT22;6664;52.514;13.440;2022-09-09T09:18:04;21.00;64.30
13198;DHT22;6664;52.514;13.440;2022-09-09T09:23:22;21.60;60.20
13198;DHT22;6664;52.514;13.440;2022-09-09T09:25:53;21.80;58.30
13198;DHT22;6664;52.514;13.440;2022-09-09T09:28:25;21.70;56.90
13198;DHT22;6664;52.514;13.440;2022-09-09T09:31:10;21.70;57.30
13198;DHT22;6664;52.514;13.440;2022-09-09T09:33:48;21.70;56.80
13198;DHT22;6664;52.514;13.440;2022-09-09T09:36:16;21.50;55.80
13198;DHT22;6664;52.514;13.440;2022-09-09T09:39:00;20.90;56.10
13198;DHT22;6664;52.514;13.440;2022-09-09T09:41:47;20.80;56.60
13198;DHT22;6664;52.514;13.440;2022-09-09T09:44:24;20.60;57.30
13198;DHT22;6664;52.514;13.440;2022-09-09T09:47:06;20.50;58.40
13198;DHT22;6664;52.514;13.440;2022-09-09T09:49:33;20.20;57.50
13198;DHT22;6664;52.514;13.440;2022-09-09T09:52:01;20.10;58.10
13198;DHT22;6664;52.514;13.440;2022-09-09T09:54:32;20.00;59.40
13198;DHT22;6664;52.514;13.440;2022-09-09T09:57:14;19.90;60.40
13198;DHT22;6664;52.514;13.440;2022-09-09T09:59:43;19.80;59.80
13198;DHT22;6664;52.514;13.440;2022-09-09T10:02:21;19.70;60.40
13198;DHT22;6664;52.514;13.440;2022-09-09T10:05:15;19.70;60.40
13198;DHT22;6664;52.514;13.440;2022-09-09T10:07:42;19.80;60.60
13198;DHT22;6664;52.514;13.440;2022-09-09T10:10:17;19.90;59.70
13198;DHT22;6664;52.514;13.440;2022-09-09T10:12:59;20.00;60.40
13198;DHT22;6664;52.514;13.440;2022-09-09T10:16:06;20.10;60.50
13198;DHT22;6664;52.514;13.440;2022-09-09T10:21:32;20.40;59.80
13198;DHT22;6664;52.514;13.440;2022-09-09T10:57:42;21.30;53.80
13198;DHT22;6664;52.514;13.440;2022-09-09T11:00:20;21.30;54.60
13198;DHT22;6664;52.514;13.440;2022-09-09T11:03:01;21.50;53.80
13198;DHT22;6664;52.514;13.440;2022-09-09T11:05:55;21.60;53.60
13198;DHT22;6664;52.514;13.440;2022-09-09T11:08:29;21.50;53.50
13198;DHT22;6664;52.514;13.440;2022-09-09T11:11:03;21.40;52.90
13198;DHT22;6664;52.514;13.440;2022-09-09T11:19:34;21.50;52.80
13198;DHT22;6664;52.514;13.440;2022-09-09T11:22:16;21.60;53.10
13198;DHT22;6664;52.514;13.440;2022-09-09T11:24:50;21.70;54.00
13198;DHT22;6664;52.514;13.440;2022-09-09T11:27:44;22.00;53.30
13198;DHT22;6664;52.514;13.440;2022-09-09T11:30:18;22.30;51.60
13198;DHT22;6664;52.514;13.440;2022-09-09T11:38:48;22.50;50.00
13198;DHT22;6664;52.514;13.440;2022-09-09T11:41:20;22.50;50.90
13198;DHT22;6664;52.514;13.440;2022-09-09T11:43:51;22.60;50.70
13198;DHT22;6664;52.514;13.440;2022-09-09T11:46:21;22.80;51.20
13198;DHT22;6664;52.514;13.440;2022-09-09T11:49:03;23.00;49.30
13198;DHT22;6664;52.514;13.440;2022-09-09T11:51:32;22.80;48.50
13198;DHT22;6664;52.514;13.440;2022-09-09T11:54:02;23.00;49.00
13198;DHT22;6664;52.514;13.440;2022-09-09T11:56:41;23.00;47.50
13198;DHT22;6664;52.514;13.440;2022-09-09T11:59:30;23.10;46.10
13198;DHT22;6664;52.514;13.440;2022-09-09T12:02:03;23.30;45.20
13198;DHT22;6664;52.514;13.440;2022-09-09T12:04:41;23.60;44.80
13198;DHT22;6664;52.514;13.440;2022-09-09T12:09:48;23.30;44.30
13198;DHT22;6664;52.514;13.440;2022-09-09T12:12:23;23.20;43.50
13198;DHT22;6664;52.514;13.440;2022-09-09T12:15:16;23.30;44.00
13198;DHT22;6664;52.514;13.440;2022-09-09T12:17:45;23.20;44.40
13198;DHT22;6664;52.514;13.440;2022-09-09T12:20:17;23.30;44.00
13198;DHT22;6664;52.514;13.440;2022-09-09T12:30:53;24.40;42.90
13198;DHT22;6664;52.514;13.440;2022-09-09T12:33:18;25.20;40.00
13198;DHT22;6664;52.514;13.440;2022-09-09T12:35:52;26.00;37.70
13198;DHT22;6664;52.514;13.440;2022-09-09T12:38:37;26.50;33.80
13198;DHT22;6664;52.514;13.440;2022-09-09T12:41:05;27.00;32.60
13198;DHT22;6664;52.514;13.440;2022-09-09T12:43:32;28.80;30.80
13198;DHT22;6664;52.514;13.440;2022-09-09T12:46:15;29.10;28.30
13198;DHT22;6664;52.514;13.440;2022-09-09T12:48:44;28.60;26.90
13198;DHT22;6664;52.514;13.440;2022-09-09T12:51:28;28.40;27.70
13198;DHT22;6664;52.514;13.440;2022-09-09T12:53:56;27.90;29.10
13198;DHT22;6664;52.514;13.440;2022-09-09T12:56:26;27.60;29.10
13198;DHT22;6664;52.514;13.440;2022-09-09T12:58:55;27.20;29.20
13198;DHT22;6664;52.514;13.440;2022-09-09T13:01:31;27.30;30.40
13198;DHT22;6664;52.514;13.440;2022-09-09T13:03:59;27.10;29.80
13198;DHT22;6664;52.514;13.440;2022-09-09T13:06:30;26.90;29.80
13198;DHT22;6664;52.514;13.440;2022-09-09T13:09:01;26.50;30.00
13198;DHT22;6664;52.514;13.440;2022-09-09T13:11:55;26.30;30.50
13198;DHT22;6664;52.514;13.440;2022-09-09T13:14:31;25.80;31.00
13198;DHT22;6664;52.514;13.440;2022-09-09T13:17:00;25.40;31.90
13198;DHT22;6664;52.514;13.440;2022-09-09T13:19:34;25.20;32.90
13198;DHT22;6664;52.514;13.440;2022-09-09T13:22:34;24.90;33.60
13198;DHT22;6664;52.514;13.440;2022-09-09T13:27:50;24.50;33.90
13198;DHT22;6664;52.514;13.440;2022-09-09T13:30:31;24.50;34.50
13198;DHT22;6664;52.514;13.440;2022-09-09T13:38:17;28.90;26.80
13198;DHT22;6664;52.514;13.440;2022-09-09T13:41:03;30.50;23.50
13198;DHT22;6664;52.514;13.440;2022-09-09T13:43:42;33.20;20.00
13198;DHT22;6664;52.514;13.440;2022-09-09T13:46:44;37.50;14.70
13198;DHT22;6664;52.514;13.440;2022-09-09T13:54:09;39.50;3.10
13198;DHT22;6664;52.514;13.440;2022-09-09T13:56:38;40.70;1.50
13198;DHT22;6664;52.514;13.440;2022-09-09T13:59:10;41.30;1.00
13198;DHT22;6664;52.514;13.440;2022-09-09T14:01:37;40.10;1.40
13198;DHT22;6664;52.514;13.440;2022-09-09T14:04:07;36.50;3.80
13198;DHT22;6664;52.514;13.440;2022-09-09T14:06:37;36.50;5.60
13198;DHT22;6664;52.514;13.440;2022-09-09T14:09:07;34.90;7.30
13198;DHT22;6664;52.514;13.440;2022-09-09T14:11:34;33.80;8.20
13198;DHT22;6664;52.514;13.440;2022-09-09T14:14:00;32.20;11.60
13198;DHT22;6664;52.514;13.440;2022-09-09T14:16:29;31.30;13.20
13198;DHT22;6664;52.514;13.440;2022-09-09T14:18:58;29.90;15.80
13198;DHT22;6664;52.514;13.440;2022-09-09T14:21:28;31.90;16.20
13198;DHT22;6664;52.514;13.440;2022-09-09T14:23:55;36.60;8.10
13198;DHT22;6664;52.514;13.440;2022-09-09T14:26:24;40.80;3.40
13198;DHT22;6664;52.514;13.440;2022-09-09T14:28:54;42.90;1.00
13198;DHT22;6664;52.514;13.440;2022-09-09T14:31:25;44.60;1.00
13198;DHT22;6664;52.514;13.440;2022-09-09T14:33:52;42.70;1.00
13198;DHT22;6664;52.514;13.440;2022-09-09T14:36:19;41.50;1.00
13198;DHT22;6664;52.514;13.440;2022-09-09T14:38:46;39.30;1.00
13198;DHT22;6664;52.514;13.440;2022-09-09T14:41:15;37.10;3.60
13198;DHT22;6664;52.514;13.440;2022-09-09T14:43:46;35.00;6.40
13198;DHT22;6664;52.514;13.440;2022-09-09T14:46:17;33.30;9.80
13198;DHT22;6664;52.514;13.440;2022-09-09T14:48:45;31.50;12.70
13198;DHT22;6664;52.514;13.440;2022-09-09T14:51:25;30.20;15.20
13198;DHT22;6664;52.514;13.440;2022-09-09T14:53:55;29.00;17.50
13198;DHT22;6664;52.514;13.440;2022-09-09T14:56:29;28.20;19.20
13198;DHT22;6664;52.514;13.440;2022-09-09T14:58:58;27.40;21.10
13198;DHT22;6664;52.514;13.440;2022-09-09T15:01:25;26.60;23.20
13198;DHT22;6664;52.514;13.440;2022-09-09T15:04:00;26.20;24.40
13198;DHT22;6664;52.514;13.440;2022-09-09T15:06:31;25.50;25.70
13198;DHT22;6664;52.514;13.440;2022-09-09T15:09:02;25.20;26.80
13198;DHT22;6664;52.514;13.440;2022-09-09T15:11:33;25.00;27.90
13198;DHT22;6664;52.514;13.440;2022-09-09T15:14:07;24.70;28.00
13198;DHT22;6664;52.514;13.440;2022-09-09T15:16:35;24.70;29.20
13198;DHT22;6664;52.514;13.440;2022-09-09T15:19:02;24.70;29.80
13198;DHT22;6664;52.514;13.440;2022-09-09T15:21:33;25.00;28.40
13198;DHT22;6664;52.514;13.440;2022-09-09T15:24:01;25.40;28.00
13198;DHT22;6664;52.514;13.440;2022-09-09T15:26:28;25.70;26.60
13198;DHT22;6664;52.514;13.440;2022-09-09T15:28:57;25.80;26.10
13198;DHT22;6664;52.514;13.440;2022-09-09T15:31:30;26.60;24.50
13198;DHT22;6664;52.514;13.440;2022-09-09T15:34:04;26.40;22.30
13198;DHT22;6664;52.514;13.440;2022-09-09T15:39:05;25.30;24.40
13198;DHT22;6664;52.514;13.440;2022-09-09T15:41:33;24.80;24.80
13198;DHT22;6664;52.514;13.440;2022-09-09T15:44:00;24.30;26.60
13198;DHT22;6664;52.514;13.440;2022-09-09T15:51:30;23.60;30.90
13198;DHT22;6664;52.514;13.440;2022-09-09T15:54:10;23.80;30.60
13198;DHT22;6664;52.514;13.440;2022-09-09T15:56:39;23.60;30.80
13198;DHT22;6664;52.514;13.440;2022-09-09T15:59:07;23.30;32.20
13198;DHT22;6664;52.514;13.440;2022-09-09T16:01:34;23.10;30.90
13198;DHT22;6664;52.514;13.440;2022-09-09T16:04:08;23.30;32.30
13198;DHT22;6664;52.514;13.440;2022-09-09T16:06:37;23.20;33.10
13198;DHT22;6664;52.514;13.440;2022-09-09T16:09:07;23.30;31.70
13198;DHT22;6664;52.514;13.440;2022-09-09T16:11:36;23.30;31.60
13198;DHT22;6664;52.514;13.440;2022-09-09T16:14:04;23.30;32.80
13198;DHT22;6664;52.514;13.440;2022-09-09T16:16:32;23.30;33.30
13198;DHT22;6664;52.514;13.440;2022-09-09T16:19:02;23.30;34.40
13198;DHT22;6664;52.514;13.440;2022-09-09T16:21:34;23.20;34.30
13198;DHT22;6664;52.514;13.440;2022-09-09T16:24:04;23.10;33.80
13198;DHT22;6664;52.514;13.440;2022-09-09T16:26:34;23.00;34.30
13198;DHT22;6664;52.514;13.440;2022-09-09T16:29:03;22.90;35.30
13198;DHT22;6664;52.514;13.440;2022-09-09T16:31:31;22.60;36.70
13198;DHT22;6664;52.514;13.440;2022-09-09T16:33:59;22.40;36.90
13198;DHT22;6664;52.514;13.440;2022-09-09T16:36:28;22.20;38.90
13198;DHT22;6664;52.514;13.440;2022-09-09T16:39:03;22.00;39.40
13198;DHT22;6664;52.514;13.440;2022-09-09T16:41:31;21.90;39.50
13198;DHT22;6664;52.514;13.440;2022-09-09T16:44:00;21.70;40.00
13198;DHT22;6664;52.514;13.440;2022-09-09T16:46:37;21.60;40.80
13198;DHT22;6664;52.514;13.440;2022-09-09T16:49:08;21.50;40.80
13198;DHT22;6664;52.514;13.440;2022-09-09T16:51:50;21.30;40.90
13198;DHT22;6664;52.514;13.440;2022-09-09T16:54:20;21.20;42.30
13198;DHT22;6664;52.514;13.440;2022-09-09T16:56:47;21.00;41.70
13198;DHT22;6664;52.514;13.440;2022-09-09T16:59:17;20.90;43.00
13198;DHT22;6664;52.514;13.440;2022-09-09T17:01:45;20.70;44.10
13198;DHT22;6664;52.514;13.440;2022-09-09T17:04:15;20.60;44.20
13198;DHT22;6664;52.514;13.440;2022-09-09T17:06:48;20.40;45.10
13198;DHT22;6664;52.514;13.440;2022-09-09T17:09:16;20.30;45.30
13198;DHT22;6664;52.514;13.440;2022-09-09T17:11:46;20.20;45.80
13198;DHT22;6664;52.514;13.440;2022-09-09T17:14:15;20.00;46.80
13198;DHT22;6664;52.514;13.440;2022-09-09T17:16:43;19.70;48.40
13198;DHT22;6664;52.514;13.440;2022-09-09T17:19:11;19.60;49.80
13198;DHT22;6664;52.514;13.440;2022-09-09T17:21:38;19.40;51.40
13198;DHT22;6664;52.514;13.440;2022-09-09T17:24:31;19.20;51.70
13198;DHT22;6664;52.514;13.440;2022-09-09T17:27:00;19.10;53.30
13198;DHT22;6664;52.514;13.440;2022-09-09T17:29:28;19.00;54.50
13198;DHT22;6664;52.514;13.440;2022-09-09T17:31:55;18.80;55.70
13198;DHT22;6664;52.514;13.440;2022-09-09T17:34:25;18.70;56.50
13198;DHT22;6664;52.514;13.440;2022-09-09T17:36:52;18.60;57.20
13198;DHT22;6664;52.514;13.440;2022-09-09T17:39:18;18.50;57.20
13198;DHT22;6664;52.514;13.440;2022-09-09T17:41:45;18.40;56.70
13198;DHT22;6664;52.514;13.440;2022-09-09T17:44:15;18.30;56.10
13198;DHT22;6664;52.514;13.440;2022-09-09T17:46:42;18.10;56.20
13198;DHT22;6664;52.514;13.440;2022-09-09T17:49:14;18.00;55.30
13198;DHT22;6664;52.514;13.440;2022-09-09T17:51:46;17.90;54.40
13198;DHT22;6664;52.514;13.440;2022-09-09T17:54:15;17.80;54.20
13198;DHT22;6664;52.514;13.440;2022-09-09T17:56:44;17.70;54.10
13198;DHT22;6664;52.514;13.440;2022-09-09T17:59:16;17.50;55.30
13198;DHT22;6664;52.514;13.440;2022-09-09T18:01:47;17.40;55.00
13198;DHT22;6664;52.514;13.440;2022-09-09T18:04:16;17.40;54.60
13198;DHT22;6664;52.514;13.440;2022-09-09T18:06:46;17.30;54.50
13198;DHT22;6664;52.514;13.440;2022-09-09T18:09:16;17.20;54.60
13198;DHT22;6664;52.514;13.440;2022-09-09T18:11:48;17.10;55.00
13198;DHT22;6664;52.514;13.440;2022-09-09T18:14:21;17.10;55.00
13198;DHT22;6664;52.514;13.440;2022-09-09T18:16:48;17.00;55.10
13198;DHT22;6664;52.514;13.440;2022-09-09T18:19:21;17.00;55.60